Time;durP1;ratioP1;P1;durP2;ratioP2;P2;SDS_P1;SDS_P2;PMS_P1;PMS_P2;Temp;Humidity;BMP_temperature;BMP_pressure;BME280_temperature;BME280_humidity;BME280_pressure;Samples;Min_cycle;Max_cycle;Signal;HPM_P1;HPM_P2
2021/09/23 00:00:04;;;;;;;9.07;7.03;;;9.20;99.90;;;;;;5058222;28;20466;-47
2021/09/23 00:05:29;;;;;;;8.00;6.97;;;9.10;99.90;;;;;;5058546;28;20451;-47
2021/09/23 00:07:56;;;;;;;8.70;7.90;;;9.10;99.90;;;;;;5058335;28;20436;-47
2021/09/23 00:10:24;;;;;;;10.63;7.97;;;9.10;99.90;;;;;;5058268;28;20522;-46
2021/09/23 00:12:50;;;;;;;9.53;7.20;;;9.10;99.90;;;;;;5057877;28;20860;-46
2021/09/23 00:15:17;;;;;;;7.57;6.87;;;9.10;99.90;;;;;;5058207;28;20405;-47
2021/09/23 00:17:49;;;;;;;7.40;6.60;;;9.00;99.90;;;;;;5040381;28;20523;-46
2021/09/23 00:20:27;;;;;;;6.97;6.30;;;9.00;99.90;;;;;;5040968;28;20960;-46
2021/09/23 00:22:53;;;;;;;8.77;7.97;;;9.00;99.90;;;;;;5057975;28;20848;-47
2021/09/23 00:25:19;;;;;;;7.17;6.47;;;9.00;99.90;;;;;;5057668;28;20417;-46
2021/09/23 00:27:45;;;;;;;7.90;7.10;;;8.90;99.90;;;;;;5058157;28;20500;-46
2021/09/23 00:30:12;;;;;;;7.50;6.77;;;8.90;99.90;;;;;;5057912;28;20490;-46
2021/09/23 00:32:39;;;;;;;8.93;6.70;;;8.90;99.90;;;;;;5058036;28;20457;-47
2021/09/23 00:35:06;;;;;;;7.17;6.43;;;8.90;99.90;;;;;;5057917;28;20417;-47
2021/09/23 00:37:32;;;;;;;6.60;6.00;;;8.90;99.90;;;;;;5057902;28;20478;-46
2021/09/23 00:39:57;;;;;;;7.17;6.47;;;8.80;99.90;;;;;;5040044;28;20436;-47
2021/09/23 00:42:24;;;;;;;7.63;6.87;;;8.80;99.90;;;;;;5057509;28;20835;-47
2021/09/23 00:44:58;;;;;;;7.90;7.10;;;8.70;99.90;;;;;;5057769;28;20189;-46
2021/09/23 00:47:24;;;;;;;8.03;7.33;;;8.70;99.90;;;;;;5058056;28;20816;-47
2021/09/23 00:49:50;;;;;;;8.33;6.87;;;8.70;99.90;;;;;;5040093;28;20513;-46
2021/09/23 00:52:16;;;;;;;8.00;7.07;;;8.70;99.90;;;;;;5057803;28;20479;-46
2021/09/23 00:54:44;;;;;;;7.87;7.07;;;8.70;99.90;;;;;;5057676;28;20416;-47
2021/09/23 00:57:09;;;;;;;7.60;6.90;;;8.70;99.90;;;;;;5039969;28;20444;-46
2021/09/23 00:59:35;;;;;;;8.47;7.37;;;8.70;99.90;;;;;;5058122;28;20463;-46
2021/09/23 01:02:01;;;;;;;8.40;7.10;;;8.60;99.90;;;;;;5057203;28;20244;-47
2021/09/23 01:04:26;;;;;;;8.73;7.83;;;8.60;99.90;;;;;;5057341;28;20521;-46
2021/09/23 01:06:53;;;;;;;7.57;6.77;;;8.60;99.90;;;;;;5039779;28;20197;-46
2021/09/23 01:09:19;;;;;;;8.17;7.37;;;8.70;99.90;;;;;;5057464;28;20247;-46
2021/09/23 01:11:45;;;;;;;7.50;6.80;;;8.70;99.90;;;;;;5057288;28;20472;-46
2021/09/23 01:14:13;;;;;;;8.47;6.90;;;8.60;99.90;;;;;;5057907;28;20439;-47
2021/09/23 01:16:39;;;;;;;8.97;7.60;;;8.60;99.90;;;;;;5061474;28;20170;-46
2021/09/23 01:19:11;;;;;;;8.37;7.40;;;8.60;99.90;;;;;;5061426;28;20437;-46
2021/09/23 01:21:37;;;;;;;9.27;7.80;;;8.60;99.90;;;;;;5061554;28;20170;-47
2021/09/23 01:24:03;;;;;;;8.90;8.00;;;8.50;99.90;;;;;;5061157;28;20447;-46
2021/09/23 01:26:29;;;;;;;8.77;7.30;;;8.50;99.90;;;;;;5061529;28;20412;-47
2021/09/23 01:28:56;;;;;;;7.90;7.07;;;8.50;99.90;;;;;;5060832;28;20476;-47
2021/09/23 01:31:22;;;;;;;8.87;7.97;;;8.50;99.90;;;;;;5061254;28;20471;-46
2021/09/23 01:33:48;;;;;;;8.40;7.30;;;8.50;99.90;;;;;;5061201;28;20425;-47
2021/09/23 01:36:14;;;;;;;9.87;8.87;;;8.50;99.90;;;;;;5060860;28;20423;-47
2021/09/23 01:38:39;;;;;;;9.70;8.70;;;8.50;99.90;;;;;;5060991;28;20345;-47
2021/09/23 01:41:05;;;;;;;11.00;8.53;;;8.40;99.90;;;;;;5061306;28;20185;-46
2021/09/23 01:43:31;;;;;;;8.67;7.77;;;8.40;99.90;;;;;;5043402;28;20190;-47
2021/09/23 01:45:56;;;;;;;7.93;7.00;;;8.40;99.90;;;;;;5060964;28;20311;-46
2021/09/23 01:48:22;;;;;;;9.97;7.57;;;8.30;99.90;;;;;;5060578;28;20519;-47
2021/09/23 01:50:48;;;;;;;7.77;6.80;;;8.30;99.90;;;;;;5060793;28;20305;-46
2021/09/23 01:53:13;;;;;;;8.43;6.17;;;8.30;99.90;;;;;;5060583;28;20183;-46
2021/09/23 01:55:39;;;;;;;7.60;6.90;;;8.20;99.90;;;;;;5060400;28;20213;-46
2021/09/23 01:58:05;;;;;;;7.87;6.80;;;8.20;99.90;;;;;;5060426;28;20257;-47
2021/09/23 02:00:30;;;;;;;9.13;7.67;;;8.20;99.90;;;;;;5060640;28;20190;-46
2021/09/23 02:02:56;;;;;;;9.03;7.00;;;8.20;99.90;;;;;;5060747;28;20184;-47
2021/09/23 02:05:22;;;;;;;9.80;8.80;;;8.20;99.90;;;;;;5043313;28;20210;-46
2021/09/23 02:07:48;;;;;;;10.07;8.40;;;8.20;99.90;;;;;;5060379;28;20425;-47
2021/09/23 02:10:14;;;;;;;8.77;7.70;;;8.20;99.90;;;;;;5043101;28;20474;-46
2021/09/23 02:12:40;;;;;;;12.23;8.50;;;8.10;99.90;;;;;;5060318;28;20179;-47
2021/09/23 02:15:07;;;;;;;8.90;8.00;;;8.10;99.90;;;;;;5060217;28;21030;-47
2021/09/23 02:17:32;;;;;;;9.77;8.77;;;8.10;99.90;;;;;;5060226;28;20190;-47
2021/09/23 02:19:58;;;;;;;14.17;9.20;;;8.10;99.90;;;;;;5060479;28;20436;-46
2021/09/23 02:22:24;;;;;;;9.60;8.50;;;8.10;99.90;;;;;;5060170;28;20179;-46
2021/09/23 02:24:51;;;;;;;11.43;10.23;;;8.00;99.90;;;;;;5060343;28;20175;-47
2021/09/23 02:27:16;;;;;;;9.23;7.97;;;8.10;99.90;;;;;;5041331;28;20428;-46
2021/09/23 02:29:42;;;;;;;10.63;9.53;;;8.10;99.90;;;;;;5059666;28;20471;-47
2021/09/23 02:32:08;;;;;;;9.20;8.03;;;8.10;99.90;;;;;;5059882;28;20220;-46
2021/09/23 02:34:34;;;;;;;11.10;9.07;;;8.10;99.90;;;;;;5059700;28;20445;-46
2021/09/23 02:37:01;;;;;;;10.63;8.20;;;8.00;99.90;;;;;;5059848;28;20512;-47
2021/09/23 02:39:27;;;;;;;10.17;9.10;;;8.00;99.90;;;;;;5060276;28;20424;-46
2021/09/23 02:41:53;;;;;;;11.80;8.90;;;7.90;99.90;;;;;;5058993;28;20749;-46
2021/09/23 02:44:19;;;;;;;9.17;8.27;;;7.90;99.90;;;;;;5059544;28;20423;-46
2021/09/23 02:46:45;;;;;;;10.30;8.40;;;7.80;99.90;;;;;;5060027;28;20340;-47
2021/09/23 02:49:10;;;;;;;10.63;8.43;;;7.80;99.90;;;;;;5059624;28;20809;-47
2021/09/23 02:51:36;;;;;;;12.13;9.40;;;7.70;99.90;;;;;;5059763;28;20303;-47
2021/09/23 02:54:02;;;;;;;11.20;10.00;;;7.70;99.90;;;;;;5059494;28;20198;-46
2021/09/23 02:56:28;;;;;;;12.13;9.50;;;7.70;99.90;;;;;;5041794;28;20327;-46
2021/09/23 02:58:54;;;;;;;10.53;9.27;;;7.70;99.90;;;;;;5059375;28;20849;-47
2021/09/23 03:01:20;;;;;;;11.13;9.00;;;7.70;99.90;;;;;;5059528;28;20181;-46
2021/09/23 03:03:46;;;;;;;10.23;9.23;;;7.70;99.90;;;;;;5059442;28;20526;-47
2021/09/23 03:06:12;;;;;;;10.70;9.00;;;7.70;99.90;;;;;;5059259;28;20847;-46
2021/09/23 03:08:37;;;;;;;11.10;9.90;;;7.70;99.90;;;;;;5059368;28;20276;-46
2021/09/23 03:11:03;;;;;;;10.50;9.40;;;7.70;99.90;;;;;;5059027;28;20579;-47
2021/09/23 03:13:29;;;;;;;11.80;10.10;;;7.70;99.90;;;;;;5058994;28;20596;-47
2021/09/23 03:15:55;;;;;;;11.00;8.67;;;7.70;99.90;;;;;;5059273;28;20416;-47
2021/09/23 03:18:21;;;;;;;10.80;8.63;;;7.70;99.90;;;;;;5058836;28;20257;-47
2021/09/23 03:20:47;;;;;;;10.80;9.70;;;7.70;99.90;;;;;;5058152;28;20448;-47
2021/09/23 03:23:14;;;;;;;12.73;10.80;;;7.70;99.90;;;;;;5058575;28;20687;-47
2021/09/23 03:25:40;;;;;;;13.13;10.77;;;7.70;99.90;;;;;;5040741;28;20430;-47
2021/09/23 03:28:06;;;;;;;11.47;10.30;;;7.70;99.90;;;;;;5058725;28;20838;-47
2021/09/23 03:30:34;;;;;;;12.07;10.33;;;7.70;99.90;;;;;;5057936;28;20484;-47
2021/09/23 03:33:01;;;;;;;11.80;10.60;;;7.70;99.90;;;;;;5040872;28;20447;-47
2021/09/23 03:35:26;;;;;;;11.67;10.30;;;7.70;99.90;;;;;;5058777;28;20420;-46
2021/09/23 03:37:52;;;;;;;10.87;9.33;;;7.70;99.90;;;;;;5058066;28;20710;-46
2021/09/23 03:40:18;;;;;;;10.70;9.60;;;7.70;99.90;;;;;;5057977;28;20197;-47
2021/09/23 03:42:43;;;;;;;12.40;9.60;;;7.70;99.90;;;;;;5057766;28;20327;-46
2021/09/23 03:45:09;;;;;;;11.43;9.40;;;7.60;99.90;;;;;;5057799;28;20261;-47
2021/09/23 03:47:35;;;;;;;11.83;10.20;;;7.60;99.90;;;;;;5057644;28;20281;-46
2021/09/23 03:50:01;;;;;;;12.97;9.83;;;7.60;99.90;;;;;;5057796;28;20823;-47
2021/09/23 03:52:27;;;;;;;12.73;10.80;;;7.60;99.90;;;;;;5058041;28;20182;-46
2021/09/23 03:54:53;;;;;;;13.57;11.13;;;7.50;99.90;;;;;;5058681;28;20486;-47
2021/09/23 03:57:19;;;;;;;12.60;10.57;;;7.50;99.90;;;;;;5058722;28;20194;-47
2021/09/23 03:59:46;;;;;;;13.80;10.87;;;7.40;99.90;;;;;;5058389;28;20960;-46
2021/09/23 04:02:13;;;;;;;12.60;11.30;;;7.40;99.90;;;;;;5058405;28;20452;-48
2021/09/23 04:04:38;;;;;;;12.33;10.03;;;7.40;99.90;;;;;;5058275;28;20423;-48
2021/09/23 04:07:04;;;;;;;11.50;10.17;;;7.40;99.90;;;;;;5058115;28;20436;-47
2021/09/23 04:09:30;;;;;;;11.33;10.10;;;7.40;99.90;;;;;;5058334;28;20186;-48
2021/09/23 04:11:56;;;;;;;11.07;9.67;;;7.40;99.90;;;;;;5057201;28;20209;-48
2021/09/23 04:14:21;;;;;;;12.80;10.50;;;7.40;99.90;;;;;;5057752;28;20409;-48
2021/09/23 04:16:48;;;;;;;11.80;10.60;;;7.40;99.90;;;;;;5057440;28;20174;-48
2021/09/23 04:19:14;;;;;;;13.00;10.97;;;7.40;99.90;;;;;;5057192;28;20549;-47
2021/09/23 04:21:40;;;;;;;14.50;11.07;;;7.40;99.90;;;;;;5056287;28;20420;-48
2021/09/23 04:24:06;;;;;;;10.83;9.67;;;7.40;99.90;;;;;;5054877;28;20498;-47
2021/09/23 04:26:32;;;;;;;12.00;10.80;;;7.40;99.90;;;;;;5055945;28;20522;-48
2021/09/23 04:28:57;;;;;;;13.90;10.73;;;7.40;99.90;;;;;;5054747;28;20230;-47
2021/09/23 04:31:23;;;;;;;13.43;11.37;;;7.30;99.90;;;;;;5054334;28;20275;-48
2021/09/23 04:33:49;;;;;;;13.03;9.30;;;7.30;99.90;;;;;;5054499;28;20205;-48
2021/09/23 04:36:14;;;;;;;15.07;10.37;;;7.20;99.90;;;;;;5054752;28;20178;-48
2021/09/23 04:38:40;;;;;;;12.00;10.00;;;7.20;99.90;;;;;;5037526;28;20182;-48
2021/09/23 04:41:06;;;;;;;10.33;9.33;;;7.20;99.90;;;;;;5055289;28;20178;-48
2021/09/23 04:43:32;;;;;;;12.80;9.60;;;7.20;99.90;;;;;;5056014;28;20835;-48
2021/09/23 04:45:57;;;;;;;12.47;9.20;;;7.20;99.90;;;;;;5055818;28;20182;-48
2021/09/23 04:48:23;;;;;;;14.10;10.80;;;7.20;99.90;;;;;;5055308;28;20197;-47
2021/09/23 04:50:49;;;;;;;11.30;9.83;;;7.20;99.90;;;;;;5055212;28;20205;-48
2021/09/23 04:53:14;;;;;;;11.67;10.47;;;7.20;99.90;;;;;;5054026;28;20638;-48
2021/09/23 04:55:41;;;;;;;11.47;9.57;;;7.20;99.90;;;;;;5054185;28;20435;-48
2021/09/23 04:58:06;;;;;;;14.43;10.40;;;7.20;99.90;;;;;;5036958;28;20187;-48
2021/09/23 05:00:32;;;;;;;13.00;9.33;;;7.20;99.90;;;;;;5054222;28;20450;-48
2021/09/23 05:02:58;;;;;;;13.80;10.10;;;7.20;99.90;;;;;;5054431;28;20269;-48
2021/09/23 05:05:23;;;;;;;11.23;9.13;;;7.20;99.90;;;;;;5055246;28;20210;-48
2021/09/23 05:07:49;;;;;;;13.50;9.80;;;7.20;99.90;;;;;;5055087;28;20186;-48
2021/09/23 05:10:14;;;;;;;11.30;10.10;;;7.20;99.90;;;;;;5037501;28;20427;-48
2021/09/23 05:12:40;;;;;;;13.20;10.80;;;7.20;99.90;;;;;;5056212;28;20186;-48
2021/09/23 05:15:07;;;;;;;12.73;10.10;;;7.20;99.90;;;;;;5036749;28;20170;-48
2021/09/23 05:17:32;;;;;;;14.10;11.33;;;7.20;99.90;;;;;;5054190;28;20729;-48
2021/09/23 05:19:59;;;;;;;15.33;12.07;;;7.30;99.90;;;;;;5053062;28;20433;-48
2021/09/23 05:22:27;;;;;;;12.70;11.30;;;7.40;99.90;;;;;;5052798;28;20188;-48
2021/09/23 05:24:56;;;;;;;12.93;11.53;;;7.40;99.90;;;;;;5053093;28;20706;-48
2021/09/23 05:27:22;;;;;;;14.20;11.80;;;7.40;99.90;;;;;;5052558;28;20451;-47
2021/09/23 05:29:48;;;;;;;14.30;11.90;;;7.40;99.90;;;;;;5055311;28;20476;-48
2021/09/23 05:32:14;;;;;;;13.67;12.00;;;7.40;99.90;;;;;;5074178;28;20626;-47
2021/09/23 05:34:39;;;;;;;13.47;11.90;;;7.50;99.90;;;;;;5075298;28;20452;-47
2021/09/23 05:37:05;;;;;;;13.80;11.60;;;7.50;99.90;;;;;;5087292;28;20192;-48
2021/09/23 05:39:31;;;;;;;15.57;11.97;;;7.50;99.90;;;;;;5073974;28;20748;-48
2021/09/23 05:41:57;;;;;;;16.90;11.70;;;7.60;99.90;;;;;;5071512;28;20462;-48
2021/09/23 05:44:23;;;;;;;15.77;11.70;;;7.70;99.90;;;;;;5072745;28;20205;-48
2021/09/23 05:46:53;;;;;;;13.67;11.17;;;7.80;99.90;;;;;;5071725;28;20541;-48
2021/09/23 05:49:20;;;;;;;14.73;11.53;;;7.80;99.90;;;;;;5071851;28;20666;-48
2021/09/23 05:51:46;;;;;;;12.47;11.07;;;7.90;99.90;;;;;;5071814;28;20600;-48
2021/09/23 05:54:12;;;;;;;16.00;11.80;;;7.90;99.90;;;;;;5073210;28;20431;-48
2021/09/23 05:56:38;;;;;;;13.20;11.00;;;8.00;99.90;;;;;;5072571;28;20426;-48
2021/09/23 05:59:04;;;;;;;12.83;11.00;;;8.10;99.90;;;;;;5073225;28;20277;-48
2021/09/23 06:01:30;;;;;;;15.70;10.83;;;8.20;99.90;;;;;;5075227;28;20519;-48
2021/09/23 06:03:56;;;;;;;16.83;12.30;;;8.30;99.90;;;;;;5076901;28;20439;-48
2021/09/23 06:06:22;;;;;;;12.20;10.20;;;8.40;99.90;;;;;;5075419;28;20243;-48
2021/09/23 06:08:47;;;;;;;10.43;9.33;;;8.50;99.90;;;;;;5076238;28;20197;-48
2021/09/23 06:11:14;;;;;;;11.73;9.93;;;8.60;99.90;;;;;;5075352;28;20455;-48
2021/09/23 06:13:41;;;;;;;10.97;9.80;;;8.70;99.90;;;;;;5075495;28;20192;-48
2021/09/23 06:16:07;;;;;;;10.40;9.10;;;8.80;99.90;;;;;;5083241;28;20431;-48
2021/09/23 06:18:33;;;;;;;13.10;10.97;;;9.00;99.90;;;;;;5080434;28;20894;-48
2021/09/23 06:20:59;;;;;;;13.57;10.37;;;9.20;99.90;;;;;;5082997;28;20445;-48
2021/09/23 06:23:24;;;;;;;14.85;12.10;;;9.40;99.90;;;;;;5082599;28;20181;-48
2021/09/23 06:25:50;;;;;;;14.13;10.00;;;9.70;99.90;;;;;;5078429;28;20184;-48
2021/09/23 06:28:16;;;;;;;12.77;10.67;;;9.90;99.90;;;;;;5076030;28;20197;-48
2021/09/23 06:30:42;;;;;;;14.90;11.27;;;10.20;99.90;;;;;;5058257;28;20252;-48
2021/09/23 06:33:07;;;;;;;12.30;10.37;;;10.50;99.90;;;;;;5056470;28;20182;-48
2021/09/23 06:35:33;;;;;;;10.20;9.10;;;10.80;99.90;;;;;;5054452;28;20428;-48
2021/09/23 06:37:59;;;;;;;10.30;9.20;;;11.10;99.90;;;;;;5054290;28;20182;-49
2021/09/23 06:40:25;;;;;;;11.00;9.90;;;11.40;99.90;;;;;;5055713;28;20166;-48
2021/09/23 06:42:50;;;;;;;12.43;10.10;;;11.70;99.90;;;;;;5055076;28;20831;-48
2021/09/23 06:45:16;;;;;;;12.60;10.97;;;12.00;99.90;;;;;;5054755;28;20418;-48
2021/09/23 06:47:42;;;;;;;11.60;10.07;;;12.30;99.90;;;;;;5055515;28;20209;-48
2021/09/23 06:50:09;;;;;;;11.67;10.30;;;12.60;99.50;;;;;;5057104;28;20803;-48
2021/09/23 06:52:35;;;;;;;10.02;9.13;;;12.90;98.90;;;;;;5056924;28;20439;-48
2021/09/23 06:55:00;;;;;;;10.27;9.27;;;13.20;98.40;;;;;;5057629;28;20173;-48
2021/09/23 06:57:26;;;;;;;11.33;10.17;;;13.50;98.00;;;;;;5057813;28;20450;-48
2021/09/23 06:59:52;;;;;;;12.47;9.20;;;13.90;97.50;;;;;;5057028;28;20178;-48
2021/09/23 07:02:17;;;;;;;12.60;8.93;;;14.30;96.10;;;;;;5057578;28;20184;-48
2021/09/23 07:04:43;;;;;;;12.57;9.73;;;14.50;94.60;;;;;;5039745;28;20192;-48
2021/09/23 07:07:09;;;;;;;9.60;8.60;;;14.60;94.00;;;;;;5055038;28;20185;-48
2021/09/23 07:09:34;;;;;;;10.47;8.70;;;14.80;94.10;;;;;;5054997;28;20654;-49
2021/09/23 07:12:00;;;;;;;10.37;9.20;;;15.00;93.50;;;;;;5054256;28;20202;-48
2021/09/23 07:14:26;;;;;;;10.23;9.30;;;15.30;93.70;;;;;;5054578;28;20185;-48
2021/09/23 07:16:52;;;;;;;9.03;8.17;;;15.60;93.20;;;;;;5054399;28;20174;-49
2021/09/23 07:19:18;;;;;;;9.37;7.93;;;15.90;92.90;;;;;;5055038;28;20710;-48
2021/09/23 07:21:44;;;;;;;9.10;8.20;;;16.40;92.00;;;;;;5056027;28;20574;-48
2021/09/23 07:24:09;;;;;;;9.30;8.40;;;16.50;91.90;;;;;;5054629;28;20795;-49
2021/09/23 07:26:35;;;;;;;9.93;6.53;;;17.10;91.70;;;;;;5056740;28;20324;-48
2021/09/23 07:29:00;;;;;;;8.37;7.17;;;17.80;90.30;;;;;;5056476;28;20631;-48
2021/09/23 07:31:26;;;;;;;9.23;7.23;;;17.40;89.00;;;;;;5056738;28;20588;-48
2021/09/23 07:33:52;;;;;;;8.33;7.60;;;17.40;88.90;;;;;;5039521;28;20573;-48
2021/09/23 07:36:19;;;;;;;9.43;6.67;;;17.90;89.00;;;;;;5057280;28;20413;-48
2021/09/23 07:38:45;;;;;;;7.13;5.93;;;18.40;89.00;;;;;;5056723;28;20466;-47
2021/09/23 07:41:11;;;;;;;6.70;6.07;;;19.20;87.80;;;;;;5039036;28;20460;-48
2021/09/23 07:43:36;;;;;;;9.47;6.07;;;20.20;85.20;;;;;;5055933;28;20791;-48
2021/09/23 07:46:02;;;;;;;6.10;5.50;;;21.10;80.80;;;;;;5056027;28;20457;-48
2021/09/23 07:48:28;;;;;;;5.93;5.33;;;21.60;76.50;;;;;;5054403;28;20568;-48
2021/09/23 07:50:54;;;;;;;7.80;6.33;;;22.30;76.60;;;;;;5053767;28;20481;-48
2021/09/23 07:53:20;;;;;;;8.13;4.80;;;23.10;72.20;;;;;;5054412;28;20440;-48
2021/09/23 07:55:46;;;;;;;5.73;5.20;;;23.60;70.00;;;;;;5054684;28;20172;-48
2021/09/23 07:58:13;;;;;;;6.13;5.53;;;23.80;64.40;;;;;;5054080;28;20189;-48
2021/09/23 08:00:39;;;;;;;5.60;5.10;;;23.80;63.60;;;;;;5053970;28;20717;-48
2021/09/23 08:03:04;;;;;;;4.70;4.30;;;24.30;61.20;;;;;;5055619;28;20448;-48
2021/09/23 08:05:31;;;;;;;5.40;4.90;;;24.60;61.30;;;;;;5056481;28;20519;-48
2021/09/23 08:07:57;;;;;;;4.47;4.07;;;25.00;58.90;;;;;;5055457;28;20536;-46
2021/09/23 08:10:23;;;;;;;6.77;4.37;;;25.80;58.40;;;;;;5056316;28;20506;-42
2021/09/23 08:12:48;;;;;;;5.60;5.10;;;26.70;56.40;;;;;;5038132;28;20428;-41
2021/09/23 08:15:14;;;;;;;5.17;4.23;;;26.70;53.80;;;;;;5057333;28;20217;-41
2021/09/23 08:17:40;;;;;;;5.03;4.40;;;27.40;52.20;;;;;;5055468;28;20704;-39
2021/09/23 08:20:07;;;;;;;4.77;3.90;;;27.00;50.40;;;;;;5053500;28;20175;-42
2021/09/23 08:22:32;;;;;;;5.50;4.43;;;27.20;50.40;;;;;;5055166;28;20186;-40
2021/09/23 08:24:58;;;;;;;4.03;3.60;;;27.40;50.30;;;;;;5053595;28;20413;-40
2021/09/23 08:27:24;;;;;;;5.30;4.80;;;28.40;49.50;;;;;;5035439;28;20192;-40
2021/09/23 08:29:50;;;;;;;5.10;4.60;;;28.70;48.20;;;;;;5051844;28;20976;-43
2021/09/23 08:32:19;;;;;;;5.27;4.77;;;28.60;47.10;;;;;;5054147;28;20611;-39
2021/09/23 08:34:48;;;;;;;4.40;4.00;;;29.40;45.60;;;;;;5055879;28;20544;-38
2021/09/23 08:37:14;;;;;;;5.63;3.93;;;30.10;45.00;;;;;;5055342;28;20478;-40
2021/09/23 08:39:40;;;;;;;4.57;4.10;;;30.70;44.30;;;;;;5055558;28;20473;-44
2021/09/23 08:42:07;;;;;;;4.77;4.37;;;31.00;43.00;;;;;;5054799;28;20501;-42
2021/09/23 08:44:35;;;;;;;4.60;4.20;;;31.10;42.10;;;;;;5054964;28;20173;-45
2021/09/23 08:47:01;;;;;;;6.23;4.20;;;31.70;42.00;;;;;;5055139;28;20510;-45
2021/09/23 08:49:26;;;;;;;3.83;3.50;;;32.50;41.20;;;;;;5056228;28;20515;-41
2021/09/23 08:51:52;;;;;;;3.80;3.43;;;32.40;40.10;;;;;;5055749;28;20629;-43
2021/09/23 08:54:18;;;;;;;4.57;4.17;;;32.70;39.60;;;;;;5056698;28;20174;-42
2021/09/23 08:56:45;;;;;;;5.30;3.90;;;32.40;39.60;;;;;;5056179;28;20538;-43
2021/09/23 08:59:11;;;;;;;3.90;3.33;;;32.70;38.90;;;;;;5056646;28;20188;-42
2021/09/23 09:01:47;;;;;;;4.27;3.87;;;32.70;38.70;;;;;;5056770;28;20420;-42
2021/09/23 09:04:12;;;;;;;3.83;3.50;;;33.00;38.30;;;;;;5056098;28;20753;-40
2021/09/23 09:07:06;;;;;;;4.43;3.60;;;33.20;38.30;;;;;;5055678;28;20428;-44
2021/09/23 09:09:32;;;;;;;3.90;3.60;;;32.90;37.50;;;;;;5038991;28;20182;-43
2021/09/23 09:11:58;;;;;;;4.30;3.90;;;33.30;37.80;;;;;;5038820;28;20465;-44
2021/09/23 09:14:30;;;;;;;4.40;4.00;;;33.00;37.40;;;;;;5056086;28;20170;-41
2021/09/23 09:17:07;;;;;;;3.90;3.50;;;32.50;37.70;;;;;;5055758;28;20192;-42
2021/09/23 09:19:51;;;;;;;5.33;3.50;;;32.10;38.40;;;;;;5037891;28;20416;-46
2021/09/23 09:22:24;;;;;;;4.90;4.03;;;32.00;38.50;;;;;;5037955;28;20436;-41
2021/09/23 09:25:25;;;;;;;3.50;3.20;;;31.10;38.50;;;;;;5056399;28;20434;-39
2021/09/23 09:27:54;;;;;;;3.50;3.20;;;30.50;39.40;;;;;;4991531;28;20490;-42
2021/09/23 09:30:22;;;;;;;4.20;3.60;;;29.60;39.90;;;;;;5041065;28;20483;-41
2021/09/23 09:32:58;;;;;;;3.37;2.80;;;29.20;40.00;;;;;;5052958;28;20512;-40
2021/09/23 09:35:34;;;;;;;3.33;2.83;;;27.90;41.20;;;;;;5054972;28;20464;-40
2021/09/23 09:38:02;;;;;;;5.20;3.00;;;27.10;42.80;;;;;;5058249;28;20430;-42
2021/09/23 09:40:32;;;;;;;2.73;2.53;;;26.60;42.90;;;;;;5058474;28;20849;-41
2021/09/23 09:43:08;;;;;;;6.17;3.40;;;26.90;43.40;;;;;;5059144;28;20433;-41
2021/09/23 09:45:34;;;;;;;2.50;2.30;;;26.60;43.60;;;;;;5058107;28;20506;-42
2021/09/23 09:48:02;;;;;;;2.93;2.40;;;27.00;43.40;;;;;;5056327;28;20708;-40
2021/09/23 09:50:30;;;;;;;3.07;2.77;;;26.70;43.20;;;;;;5056096;28;20456;-40
2021/09/23 09:52:58;;;;;;;3.00;2.70;;;27.00;43.30;;;;;;5055942;28;20438;-41
2021/09/23 09:55:27;;;;;;;3.10;2.80;;;27.60;42.00;;;;;;5057196;28;20507;-42
2021/09/23 09:57:53;;;;;;;3.13;2.83;;;27.40;41.40;;;;;;5055325;28;20432;-41
2021/09/23 10:00:21;;;;;;;2.80;2.60;;;27.60;41.80;;;;;;5055897;28;20431;-43
2021/09/23 10:02:47;;;;;;;3.10;2.80;;;27.80;41.00;;;;;;5055999;28;20425;-41
2021/09/23 10:05:15;;;;;;;4.23;2.93;;;28.80;40.20;;;;;;5054924;28;20810;-42
2021/09/23 10:07:44;;;;;;;3.03;2.73;;;27.60;41.10;;;;;;5056951;28;20812;-39
2021/09/23 10:10:11;;;;;;;3.47;3.17;;;28.60;41.20;;;;;;5056746;28;20432;-42
2021/09/23 10:12:42;;;;;;;3.13;2.87;;;29.70;39.40;;;;;;5056664;28;20527;-39
2021/09/23 10:15:09;;;;;;;2.87;2.63;;;30.00;39.00;;;;;;5038897;28;20511;-41
2021/09/23 10:17:36;;;;;;;3.20;2.50;;;30.80;38.10;;;;;;5056097;28;20441;-43
2021/09/23 10:20:07;;;;;;;4.50;3.20;;;31.40;37.40;;;;;;5057162;28;20420;-42
2021/09/23 10:22:33;;;;;;;2.80;2.60;;;31.90;37.00;;;;;;5055868;28;20436;-44
2021/09/23 10:25:00;;;;;;;2.50;2.30;;;31.40;36.00;;;;;;5054866;28;20428;-42
2021/09/23 10:30:13;;;;;;;3.30;2.83;;;32.30;37.20;;;;;;5064393;28;20687;-43
2021/09/23 10:32:40;;;;;;;3.25;2.70;;;32.10;36.90;;;;;;5076060;28;20510;-44
2021/09/23 10:35:06;;;;;;;3.00;2.70;;;33.50;36.40;;;;;;5079983;28;20822;-43
2021/09/23 10:37:32;;;;;;;3.93;3.17;;;34.10;35.50;;;;;;5077447;28;20839;-44
2021/09/23 10:39:58;;;;;;;3.17;2.87;;;34.40;34.50;;;;;;5077686;28;20388;-42
2021/09/23 10:42:24;;;;;;;2.70;2.50;;;35.20;34.80;;;;;;5077574;28;20420;-43
2021/09/23 10:44:55;;;;;;;3.00;2.80;;;35.70;33.70;;;;;;5078172;28;20396;-41
2021/09/23 10:47:39;;;;;;;3.33;3.03;;;35.80;33.20;;;;;;5075628;28;20196;-43
2021/09/23 10:50:07;;;;;;;2.97;2.70;;;35.60;33.10;;;;;;5077546;28;20883;-38
2021/09/23 10:52:34;;;;;;;5.67;3.30;;;35.60;33.60;;;;;;5078586;28;20477;-41
2021/09/23 10:55:08;;;;;;;3.73;3.43;;;34.90;33.80;;;;;;5079374;28;20386;-45
2021/09/23 10:57:34;;;;;;;2.93;2.73;;;34.90;33.70;;;;;;5086877;28;20416;-42
2021/09/23 11:00:03;;;;;;;2.60;2.40;;;35.20;33.90;;;;;;5097448;28;20414;-44
2021/09/23 11:02:31;;;;;;;4.20;3.80;;;36.00;34.10;;;;;;5096519;28;20817;-40
2021/09/23 11:04:59;;;;;;;4.63;3.43;;;36.80;32.70;;;;;;5095505;28;20401;-42
2021/09/23 11:07:29;;;;;;;3.67;2.93;;;36.70;32.60;;;;;;5097321;28;20427;-43
2021/09/23 11:10:11;;;;;;;3.80;2.93;;;36.10;33.10;;;;;;5097254;28;20401;-39
2021/09/23 11:12:39;;;;;;;3.20;2.60;;;35.50;33.70;;;;;;5094291;28;20424;-40
2021/09/23 11:15:07;;;;;;;3.50;3.20;;;36.00;33.30;;;;;;5094576;28;20538;-41
2021/09/23 11:17:34;;;;;;;3.37;3.00;;;36.40;32.50;;;;;;5095025;28;20600;-42
2021/09/23 11:20:03;;;;;;;6.87;3.60;;;36.00;33.10;;;;;;5093003;28;20703;-40
2021/09/23 11:22:41;;;;;;;3.97;3.47;;;37.30;32.70;;;;;;5095366;28;20437;-41
2021/09/23 11:25:18;;;;;;;2.70;2.50;;;37.30;32.50;;;;;;5097195;28;20572;-39
2021/09/23 11:27:46;;;;;;;2.97;2.70;;;36.90;30.80;;;;;;5095233;28;20320;-43
2021/09/23 11:30:14;;;;;;;2.77;2.57;;;35.90;32.00;;;;;;5079876;28;20744;-43
2021/09/23 11:33:00;;;;;;;2.85;2.65;;;35.40;31.90;;;;;;5074494;28;20477;-45
2021/09/23 11:35:29;;;;;;;2.57;2.37;;;34.30;33.00;;;;;;5071772;28;20234;-43
2021/09/23 11:37:56;;;;;;;2.30;2.10;;;33.50;32.90;;;;;;5073855;28;20403;-41
2021/09/23 11:40:26;;;;;;;2.97;2.40;;;32.60;32.30;;;;;;5074167;28;20172;-41
2021/09/23 11:42:53;;;;;;;3.40;2.90;;;30.90;33.50;;;;;;5073844;28;20524;-43
2021/09/23 11:45:24;;;;;;;2.60;2.40;;;30.90;34.70;;;;;;5074908;28;20429;-41
2021/09/23 11:47:56;;;;;;;3.07;2.87;;;30.40;34.60;;;;;;5074039;28;20405;-42
2021/09/23 11:50:34;;;;;;;2.93;2.63;;;30.20;35.60;;;;;;5075220;28;20838;-41
2021/09/23 11:53:33;;;;;;;4.50;3.20;;;30.40;35.20;;;;;;5073605;28;20430;-43
2021/09/23 11:56:00;;;;;;;3.43;3.13;;;30.80;35.70;;;;;;5019933;28;20493;-42
2021/09/23 11:58:26;;;;;;;2.80;2.57;;;30.60;34.80;;;;;;5072320;28;20841;-39
2021/09/23 12:00:53;;;;;;;3.30;2.20;;;30.40;35.00;;;;;;5052873;28;20782;-40
2021/09/23 12:03:20;;;;;;;3.55;2.55;;;29.90;36.40;;;;;;5069145;28;20455;-39
2021/09/23 12:05:47;;;;;;;2.63;2.43;;;30.40;36.40;;;;;;5069996;28;20169;-43
2021/09/23 12:08:18;;;;;;;2.93;2.63;;;31.10;35.80;;;;;;5071664;28;20431;-39
2021/09/23 12:10:58;;;;;;;4.33;2.70;;;31.20;34.90;;;;;;5072866;28;20516;-40
2021/09/23 12:15:57;;;;;;;4.93;2.73;;;31.00;36.40;;;;;;5074362;28;20751;-42
2021/09/23 12:18:24;;;;;;;7.30;3.23;;;30.10;36.10;;;;;;5073706;28;20462;-41
2021/09/23 12:20:51;;;;;;;3.13;2.50;;;29.00;37.30;;;;;;5076160;28;20477;-40
2021/09/23 12:23:20;;;;;;;3.57;2.83;;;29.10;37.60;;;;;;5074307;28;20453;-41
2021/09/23 12:26:09;;;;;;;2.77;2.57;;;30.20;37.90;;;;;;5074640;28;20416;-41
2021/09/23 12:28:38;;;;;;;2.97;2.77;;;30.90;36.10;;;;;;5074436;28;20406;-43
2021/09/23 12:31:06;;;;;;;2.87;2.67;;;31.80;35.80;;;;;;5057233;28;20478;-44
2021/09/23 12:33:32;;;;;;;4.07;3.33;;;31.80;34.80;;;;;;5074810;28;20627;-40
2021/09/23 12:36:16;;;;;;;3.60;3.30;;;31.40;35.20;;;;;;5044741;28;21012;-43
2021/09/23 12:38:42;;;;;;;4.43;2.67;;;30.90;36.10;;;;;;5054902;28;20720;-42
2021/09/23 12:41:19;;;;;;;4.23;3.00;;;30.70;37.30;;;;;;5056325;28;20412;-40
2021/09/23 12:43:44;;;;;;;4.57;3.20;;;31.10;36.10;;;;;;5056672;28;20421;-41
2021/09/23 12:46:12;;;;;;;4.60;2.90;;;32.00;36.00;;;;;;5056619;28;20670;-40
2021/09/23 12:48:40;;;;;;;3.67;2.53;;;32.50;35.00;;;;;;5055678;28;20187;-40
2021/09/23 12:51:08;;;;;;;4.47;3.57;;;32.10;35.50;;;;;;5055260;28;20874;-47
2021/09/23 12:53:35;;;;;;;3.53;2.90;;;31.50;35.70;;;;;;5055403;28;20424;-45